createdAt,value
2019-02-28T00:00:56.786Z,2.30
2019-02-28T00:03:45.376Z,2.20
2019-02-28T00:06:36.733Z,2.10
2019-02-28T00:09:25.743Z,2.00
2019-02-28T00:12:14.425Z,1.90
2019-02-28T00:15:02.477Z,1.90
2019-02-28T00:17:50.352Z,1.80
2019-02-28T00:20:38.915Z,1.70
2019-02-28T00:23:26.897Z,1.40
2019-02-28T00:26:15.031Z,1.30
2019-02-28T00:29:02.806Z,1.30
2019-02-28T00:31:50.957Z,1.30
2019-02-28T00:34:39.195Z,1.30
2019-02-28T00:37:30.014Z,1.30
2019-02-28T00:40:17.838Z,1.30
2019-02-28T00:43:05.990Z,1.30
2019-02-28T00:45:54.214Z,1.40
2019-02-28T00:48:42.253Z,1.40
2019-02-28T00:51:30.787Z,1.40
2019-02-28T00:54:18.860Z,1.30
2019-02-28T00:57:06.772Z,1.40
2019-02-28T00:59:54.816Z,1.40
2019-02-28T01:02:42.281Z,1.40
2019-02-28T01:05:29.826Z,1.40
2019-02-28T01:08:19.179Z,1.40
2019-02-28T01:11:07.285Z,1.40
2019-02-28T01:13:55.080Z,1.40
2019-02-28T01:16:42.958Z,1.40
2019-02-28T01:19:31.091Z,1.30
2019-02-28T01:22:18.853Z,1.40
2019-02-28T01:25:07.815Z,1.30
2019-02-28T01:27:55.697Z,1.20
2019-02-28T01:30:44.126Z,1.10
2019-02-28T01:33:31.637Z,1.00
2019-02-28T01:36:19.755Z,1.00
2019-02-28T01:39:08.180Z,1.00
2019-02-28T01:41:56.238Z,0.90
2019-02-28T01:44:44.451Z,0.90
2019-02-28T01:47:35.317Z,0.90
2019-02-28T01:50:23.140Z,1.00
2019-02-28T01:53:10.789Z,1.00
2019-02-28T01:56:02.229Z,1.00
2019-02-28T01:58:50.402Z,1.10
2019-02-28T02:01:37.735Z,1.10
2019-02-28T02:04:25.800Z,1.10
2019-02-28T02:07:13.805Z,1.10
2019-02-28T02:10:03.845Z,1.10
2019-02-28T02:12:52.122Z,1.00
2019-02-28T02:15:39.874Z,1.00
2019-02-28T02:18:28.121Z,0.90
2019-02-28T02:21:16.285Z,0.90
2019-02-28T02:24:04.596Z,0.90
2019-02-28T02:26:52.804Z,0.90
2019-02-28T02:29:40.919Z,0.90
2019-02-28T02:32:28.775Z,0.90
2019-02-28T02:35:17.055Z,0.90
2019-02-28T02:38:05.094Z,0.90
2019-02-28T02:40:58.984Z,0.90
2019-02-28T02:43:42.444Z,0.90
2019-02-28T02:46:31.112Z,0.80
2019-02-28T02:49:20.278Z,0.80
2019-02-28T02:52:09.936Z,0.80
2019-02-28T02:54:57.817Z,0.80
2019-02-28T02:57:50.525Z,0.70
2019-02-28T03:00:35.497Z,0.70
2019-02-28T03:03:23.700Z,0.50
2019-02-28T03:06:14.160Z,0.50
2019-02-28T03:09:01.512Z,0.60
2019-02-28T03:11:49.434Z,0.60
2019-02-28T03:14:37.471Z,0.60
2019-02-28T03:17:25.582Z,0.60
2019-02-28T03:20:14.020Z,0.50
2019-02-28T03:23:03.150Z,0.50
2019-02-28T03:25:51.074Z,0.40
2019-02-28T03:28:39.286Z,0.40
2019-02-28T03:31:27.398Z,0.40
2019-02-28T03:34:15.346Z,0.50
2019-02-28T03:37:03.467Z,0.50
2019-02-28T03:39:51.635Z,0.60
2019-02-28T03:42:38.888Z,0.60
2019-02-28T03:45:33.819Z,0.60
2019-02-28T03:48:15.617Z,0.60
2019-02-28T03:51:03.365Z,0.70
2019-02-28T03:53:55.543Z,0.70
2019-02-28T03:56:40.627Z,0.80
2019-02-28T03:59:28.480Z,0.70
2019-02-28T04:02:20.975Z,0.70
2019-02-28T04:05:07.319Z,0.70
2019-02-28T04:07:55.191Z,0.70
2019-02-28T04:10:43.114Z,0.70
2019-02-28T04:13:31.208Z,0.80
2019-02-28T04:16:19.453Z,0.80
2019-02-28T04:19:07.207Z,0.70
2019-02-28T04:21:54.734Z,0.70
2019-02-28T04:24:46.360Z,0.60
2019-02-28T04:27:32.917Z,0.60
2019-02-28T04:30:20.924Z,0.60
2019-02-28T04:33:08.881Z,0.50
2019-02-28T04:36:00.217Z,0.50
2019-02-28T04:38:46.540Z,0.50
2019-02-28T04:41:34.615Z,0.50
2019-02-28T04:44:22.734Z,0.60
2019-02-28T04:47:10.650Z,0.60
2019-02-28T04:49:58.840Z,0.60
2019-02-28T04:52:48.277Z,0.50
2019-02-28T04:55:37.340Z,0.50
2019-02-28T04:58:28.668Z,0.50
2019-02-28T05:01:16.705Z,0.50
2019-02-28T05:04:04.594Z,0.40
2019-02-28T05:06:55.312Z,0.30
2019-02-28T05:09:41.818Z,0.30
2019-02-28T05:12:30.076Z,0.30
2019-02-28T05:15:17.895Z,0.30
2019-02-28T05:18:05.437Z,0.30
2019-02-28T05:20:53.743Z,0.30
2019-02-28T05:23:41.661Z,0.30
2019-02-28T05:26:29.695Z,0.30
2019-02-28T05:29:17.880Z,0.30
2019-02-28T05:32:06.020Z,0.30
2019-02-28T05:34:53.955Z,0.20
2019-02-28T05:37:48.325Z,0.30
2019-02-28T05:40:37.548Z,0.30
2019-02-28T05:43:24.147Z,0.30
2019-02-28T05:46:12.871Z,0.30
2019-02-28T05:49:04.038Z,0.20
2019-02-28T05:51:52.098Z,0.20
2019-02-28T05:54:42.470Z,0.20
2019-02-28T05:57:30.393Z,0.20
2019-02-28T06:00:19.864Z,0.20
2019-02-28T06:03:07.767Z,0.20
2019-02-28T06:05:56.248Z,0.20
2019-02-28T06:08:44.488Z,0.20
2019-02-28T06:11:35.584Z,0.20
2019-02-28T06:14:26.617Z,0.20
2019-02-28T06:17:13.136Z,0.20
2019-02-28T06:20:01.670Z,0.20
2019-02-28T06:22:49.829Z,0.20
2019-02-28T06:25:37.764Z,0.20
2019-02-28T06:28:27.639Z,0.20
2019-02-28T06:31:18.566Z,0.20
2019-02-28T06:34:08.541Z,0.20
2019-02-28T06:36:56.512Z,0.20
2019-02-28T06:39:44.306Z,0.20
2019-02-28T06:42:34.774Z,0.20
2019-02-28T06:45:23.041Z,0.20
2019-02-28T06:48:10.935Z,0.20
2019-02-28T06:50:58.910Z,0.20
2019-02-28T06:53:49.794Z,0.20
2019-02-28T06:56:37.539Z,0.30
2019-02-28T06:59:28.926Z,0.40
2019-02-28T07:02:17.071Z,0.40
2019-02-28T07:05:04.842Z,0.60
2019-02-28T07:07:55.138Z,0.70
2019-02-28T07:10:44.951Z,0.80
2019-02-28T07:13:32.506Z,0.90
2019-02-28T07:16:20.399Z,1.00
2019-02-28T07:19:08.200Z,1.10
2019-02-28T07:21:56.285Z,1.10
2019-02-28T07:24:44.102Z,1.30
2019-02-28T07:27:31.940Z,1.40
2019-02-28T07:30:20.410Z,1.60
2019-02-28T07:33:10.585Z,1.70
2019-02-28T07:35:58.587Z,1.90
2019-02-28T07:38:46.563Z,2.10
2019-02-28T07:41:34.593Z,2.30
2019-02-28T07:44:22.470Z,2.60
2019-02-28T07:47:10.844Z,2.80
2019-02-28T07:49:58.393Z,3.00
2019-02-28T07:52:46.281Z,3.30
2019-02-28T07:55:34.334Z,3.50
2019-02-28T07:58:22.171Z,3.70
2019-02-28T08:01:10.283Z,4.00
2019-02-28T08:03:58.076Z,4.20
2019-02-28T08:06:45.979Z,4.50
2019-02-28T08:09:36.845Z,4.80
2019-02-28T08:12:23.465Z,5.10
2019-02-28T08:15:21.148Z,5.40
2019-02-28T08:18:05.774Z,5.60
2019-02-28T08:21:12.641Z,6.00
2019-02-28T08:24:02.446Z,6.20
2019-02-28T08:26:53.590Z,6.60
2019-02-28T08:29:44.777Z,6.90
2019-02-28T08:32:29.955Z,7.20
2019-02-28T08:35:17.432Z,7.50
2019-02-28T08:38:08.660Z,7.80
2019-02-28T08:40:56.624Z,8.10
2019-02-28T08:43:47.591Z,8.40
2019-02-28T08:46:34.756Z,8.80
2019-02-28T08:49:21.465Z,9.10
2019-02-28T08:52:08.100Z,9.70
2019-02-28T08:54:55.609Z,10.20
2019-02-28T08:57:43.841Z,10.40
2019-02-28T09:00:33.307Z,10.80
2019-02-28T09:03:27.325Z,11.10
2019-02-28T09:06:14.711Z,11.30
2019-02-28T09:09:04.553Z,11.60
2019-02-28T09:11:52.768Z,11.80
2019-02-28T09:14:42.358Z,12.00
2019-02-28T09:17:30.239Z,12.20
2019-02-28T09:20:18.475Z,12.20
2019-02-28T09:23:06.416Z,12.40
2019-02-28T09:25:56.761Z,12.50
2019-02-28T09:28:47.459Z,12.70
2019-02-28T09:31:38.699Z,12.80
2019-02-28T09:34:25.765Z,13.00
2019-02-28T09:37:13.641Z,13.10
2019-02-28T09:40:04.465Z,13.30
2019-02-28T09:42:52.799Z,13.80
2019-02-28T09:45:41.179Z,14.30
2019-02-28T09:48:30.695Z,14.70
2019-02-28T09:51:18.638Z,14.90
2019-02-28T09:54:07.148Z,15.10
2019-02-28T09:56:58.147Z,15.20
2019-02-28T09:59:46.645Z,15.40
2019-02-28T10:02:34.645Z,15.50
2019-02-28T10:05:22.493Z,15.60
2019-02-28T10:08:10.498Z,15.70
2019-02-28T10:10:58.655Z,15.90
2019-02-28T10:13:49.542Z,16.00
2019-02-28T10:16:35.968Z,16.00
2019-02-28T10:19:23.882Z,16.10
2019-02-28T10:22:13.056Z,16.20
2019-02-28T10:25:03.635Z,16.30
2019-02-28T10:27:52.118Z,16.30
2019-02-28T10:30:40.666Z,16.40
2019-02-28T10:33:29.199Z,16.40
2019-02-28T10:36:17.135Z,16.50
2019-02-28T10:39:08.868Z,16.60
2019-02-28T10:41:57.424Z,16.50
2019-02-28T10:44:46.224Z,16.60
2019-02-28T10:47:33.931Z,16.60
2019-02-28T10:50:23.010Z,16.50
2019-02-28T10:53:11.563Z,16.60
2019-02-28T10:55:59.352Z,16.60
2019-02-28T10:58:49.961Z,16.60
2019-02-28T11:01:41.585Z,16.60
2019-02-28T11:04:27.633Z,16.60
2019-02-28T11:07:15.691Z,16.60
2019-02-28T11:10:03.815Z,16.70
2019-02-28T11:12:54.318Z,16.70
2019-02-28T11:15:41.653Z,16.70
2019-02-28T11:18:29.819Z,16.70
2019-02-28T11:21:18.418Z,16.70
2019-02-28T11:24:07.297Z,16.80
2019-02-28T11:26:55.986Z,16.90
2019-02-28T11:29:46.763Z,16.80
2019-02-28T11:32:34.896Z,16.90
2019-02-28T11:35:23.982Z,16.90
2019-02-28T11:38:12.853Z,16.90
2019-02-28T11:41:00.883Z,17.00
2019-02-28T11:43:48.929Z,17.00
2019-02-28T11:46:37.201Z,16.90
2019-02-28T11:49:29.366Z,16.90
2019-02-28T11:52:17.903Z,16.90
2019-02-28T11:55:07.083Z,16.90
2019-02-28T11:57:54.852Z,16.90
2019-02-28T12:00:43.162Z,16.90
2019-02-28T12:03:31.903Z,16.90
2019-02-28T12:06:25.746Z,16.90
2019-02-28T12:09:16.256Z,17.00
2019-02-28T12:12:07.307Z,17.10
2019-02-28T12:14:54.234Z,17.10
2019-02-28T12:17:42.538Z,17.20
2019-02-28T12:20:33.961Z,17.20
2019-02-28T12:23:23.516Z,17.30
2019-02-28T12:26:14.442Z,17.10
2019-02-28T12:29:01.862Z,17.20
2019-02-28T12:31:49.733Z,17.10
2019-02-28T12:34:37.821Z,17.10
2019-02-28T12:37:25.678Z,17.20
2019-02-28T12:40:19.215Z,17.20
2019-02-28T12:43:08.621Z,17.30
2019-02-28T12:45:59.814Z,17.30
2019-02-28T12:48:48.374Z,17.40
2019-02-28T12:51:39.256Z,17.40
2019-02-28T12:54:26.453Z,17.20
2019-02-28T12:57:14.546Z,17.20
2019-02-28T13:00:02.660Z,17.20
2019-02-28T13:02:51.492Z,17.20
2019-02-28T13:05:39.225Z,17.20
2019-02-28T13:08:28.656Z,17.30
2019-02-28T13:11:16.970Z,17.30
2019-02-28T13:14:06.462Z,17.10
2019-02-28T13:16:57.525Z,17.20
2019-02-28T13:19:44.164Z,17.30
2019-02-28T13:22:32.650Z,17.30
2019-02-28T13:25:23.609Z,17.30
2019-02-28T13:28:11.569Z,17.30
2019-02-28T13:30:59.795Z,17.40
2019-02-28T13:33:48.621Z,17.30
2019-02-28T13:36:37.251Z,17.20
2019-02-28T13:39:27.355Z,17.10
2019-02-28T13:42:15.412Z,17.10
2019-02-28T13:45:03.598Z,17.00
2019-02-28T13:47:53.010Z,17.00
2019-02-28T13:50:41.047Z,17.00
2019-02-28T13:53:30.768Z,17.00
2019-02-28T13:56:18.729Z,16.90
2019-02-28T13:59:07.209Z,16.90
2019-02-28T14:01:56.196Z,17.00
2019-02-28T14:04:44.551Z,17.10
2019-02-28T14:07:36.382Z,17.10
2019-02-28T14:10:25.211Z,17.20
2019-02-28T14:13:13.063Z,17.30
2019-02-28T14:16:01.675Z,17.40
2019-02-28T14:18:49.535Z,17.40
2019-02-28T14:21:37.821Z,17.20
2019-02-28T14:24:27.495Z,16.90
2019-02-28T14:27:15.651Z,17.00
2019-02-28T14:30:04.433Z,17.00
2019-02-28T14:32:52.120Z,17.00
2019-02-28T14:35:40.474Z,16.90
2019-02-28T14:38:29.620Z,16.90
2019-02-28T14:41:18.243Z,17.00
2019-02-28T14:44:07.051Z,17.00
2019-02-28T14:46:55.037Z,17.00
2019-02-28T14:49:43.818Z,17.10
2019-02-28T14:52:35.759Z,17.10
2019-02-28T14:55:23.076Z,17.10
2019-02-28T14:58:13.911Z,17.10
2019-02-28T15:01:02.329Z,17.00
2019-02-28T15:03:50.705Z,16.90
2019-02-28T15:06:42.445Z,16.90
2019-02-28T15:09:30.194Z,16.90
2019-02-28T15:12:20.314Z,16.70
2019-02-28T15:15:10.887Z,16.50
2019-02-28T15:17:59.199Z,16.40
2019-02-28T15:20:51.764Z,16.10
2019-02-28T15:23:39.980Z,16.00
2019-02-28T15:26:29.572Z,15.90
2019-02-28T15:29:17.159Z,15.70
2019-02-28T15:32:05.254Z,15.70
2019-02-28T15:34:53.208Z,15.50
2019-02-28T15:37:41.467Z,15.50
2019-02-28T15:40:31.398Z,15.40
2019-02-28T15:43:19.148Z,15.50
2019-02-28T15:46:08.570Z,15.60
2019-02-28T15:48:57.021Z,15.70
2019-02-28T15:51:47.427Z,15.80
2019-02-28T15:54:35.869Z,15.80
2019-02-28T15:57:26.765Z,15.80
2019-02-28T16:00:22.257Z,15.80
2019-02-28T16:03:13.555Z,15.70
2019-02-28T16:06:00.865Z,15.70
2019-02-28T16:08:48.647Z,15.60
2019-02-28T16:11:37.379Z,15.50
2019-02-28T16:14:26.209Z,15.40
2019-02-28T16:17:14.240Z,15.40
2019-02-28T16:20:02.156Z,15.30
2019-02-28T16:22:53.115Z,15.30
2019-02-28T16:25:39.169Z,15.30
2019-02-28T16:28:27.415Z,15.10
2019-02-28T16:31:15.552Z,15.00
2019-02-28T16:34:08.310Z,14.90
2019-02-28T16:36:53.488Z,14.80
2019-02-28T16:39:41.157Z,14.70
2019-02-28T16:42:29.081Z,14.60
2019-02-28T16:45:32.664Z,14.50
2019-02-28T16:48:20.792Z,14.40
2019-02-28T16:51:09.047Z,14.40
2019-02-28T16:53:56.581Z,14.30
2019-02-28T16:56:44.364Z,14.20
2019-02-28T16:59:32.513Z,14.10
2019-02-28T17:02:20.427Z,14.00
2019-02-28T17:05:08.803Z,13.90
2019-02-28T17:07:56.734Z,13.80
2019-02-28T17:10:44.830Z,13.70
2019-02-28T17:13:39.490Z,13.60
2019-02-28T17:16:41.079Z,13.50
2019-02-28T17:19:31.682Z,13.40
2019-02-28T17:22:23.763Z,13.30
2019-02-28T17:25:11.590Z,13.20
2019-02-28T17:28:06.987Z,13.10
2019-02-28T17:31:12.947Z,13.10
2019-02-28T17:34:00.926Z,13.00
2019-02-28T17:36:51.220Z,12.90
2019-02-28T17:39:39.457Z,12.80
2019-02-28T17:42:27.127Z,12.80
2019-02-28T17:45:18.847Z,12.70
2019-02-28T17:49:18.629Z,12.70
2019-02-28T17:52:13.604Z,12.60
2019-02-28T17:55:57.160Z,12.50
2019-02-28T17:59:10.168Z,12.50
2019-02-28T18:02:21.454Z,12.60
2019-02-28T18:05:30.292Z,12.70
2019-02-28T18:08:44.793Z,12.70
2019-02-28T18:11:57.996Z,12.70
2019-02-28T18:15:16.617Z,12.70
2019-02-28T18:19:01.644Z,12.80
2019-02-28T18:22:00.227Z,12.80
2019-02-28T18:25:24.782Z,12.70
2019-02-28T18:28:59.054Z,12.70
2019-02-28T18:31:47.088Z,12.70
2019-02-28T18:34:36.357Z,12.60
2019-02-28T18:37:24.516Z,12.60
2019-02-28T18:40:12.369Z,12.50
2019-02-28T18:43:00.518Z,12.50
2019-02-28T18:45:48.628Z,12.30
2019-02-28T18:48:36.586Z,12.30
2019-02-28T18:51:24.534Z,12.20
2019-02-28T18:54:12.620Z,12.20
2019-02-28T18:57:00.572Z,12.10
2019-02-28T18:59:48.422Z,12.00
2019-02-28T19:02:36.497Z,12.00
2019-02-28T19:05:25.948Z,11.90
2019-02-28T19:08:14.239Z,11.90
2019-02-28T19:11:02.295Z,11.80
2019-02-28T19:13:53.265Z,11.80
2019-02-28T19:16:41.141Z,11.80
2019-02-28T19:19:29.104Z,11.80
2019-02-28T19:22:17.436Z,11.80
2019-02-28T19:25:05.196Z,11.80
2019-02-28T19:27:53.057Z,11.70
2019-02-28T19:30:40.999Z,11.70
2019-02-28T19:33:28.918Z,11.70
2019-02-28T19:36:16.978Z,11.70
2019-02-28T19:39:06.900Z,11.60
2019-02-28T19:41:55.210Z,11.60
2019-02-28T19:44:44.044Z,11.60
2019-02-28T19:47:32.439Z,11.60
2019-02-28T19:50:21.709Z,11.60
2019-02-28T19:53:09.907Z,11.50
2019-02-28T19:55:57.759Z,11.50
2019-02-28T19:58:46.008Z,11.50
2019-02-28T20:01:34.250Z,11.50
2019-02-28T20:04:22.545Z,11.60
2019-02-28T20:07:10.390Z,11.70
2019-02-28T20:09:58.416Z,11.60
2019-02-28T20:12:49.384Z,11.60
2019-02-28T20:15:39.118Z,11.60
2019-02-28T20:18:27.950Z,11.60
2019-02-28T20:21:16.212Z,11.60
2019-02-28T20:24:05.598Z,11.60
2019-02-28T20:26:53.744Z,11.50
2019-02-28T20:29:41.999Z,11.50
2019-02-28T20:32:30.026Z,11.50
2019-02-28T20:35:26.245Z,11.40
2019-02-28T20:38:07.931Z,11.30
2019-02-28T20:40:55.987Z,11.20
2019-02-28T20:43:43.824Z,11.10
2019-02-28T20:46:31.449Z,11.10
2019-02-28T20:49:19.402Z,11.00
2019-02-28T20:52:07.849Z,11.00
2019-02-28T20:54:58.391Z,10.90
2019-02-28T20:57:46.273Z,11.00
2019-02-28T21:00:34.370Z,10.90
2019-02-28T21:03:22.304Z,10.90
2019-02-28T21:06:10.705Z,10.90
2019-02-28T21:08:58.555Z,10.90
2019-02-28T21:11:46.300Z,10.90
2019-02-28T21:14:34.393Z,10.90
2019-02-28T21:17:29.225Z,10.90
2019-02-28T21:20:12.547Z,10.90
2019-02-28T21:23:00.339Z,10.90
2019-02-28T21:25:48.280Z,10.80
2019-02-28T21:28:39.480Z,10.80
2019-02-28T21:31:27.815Z,10.70
2019-02-28T21:34:15.738Z,10.70
2019-02-28T21:37:03.962Z,10.70
2019-02-28T21:39:55.462Z,10.70
2019-02-28T21:42:43.459Z,10.60
2019-02-28T21:45:31.305Z,10.50
2019-02-28T21:48:21.784Z,10.50
2019-02-28T21:51:09.709Z,10.50
2019-02-28T21:53:57.538Z,10.50
2019-02-28T21:56:45.160Z,10.50
2019-02-28T21:59:33.536Z,10.50
2019-02-28T22:02:21.454Z,10.50
2019-02-28T22:05:11.196Z,10.40
2019-02-28T22:07:59.454Z,10.40
2019-02-28T22:10:48.816Z,10.40
2019-02-28T22:13:36.780Z,10.40
2019-02-28T22:16:24.801Z,10.40
2019-02-28T22:19:14.786Z,10.30
2019-02-28T22:22:02.744Z,10.40
2019-02-28T22:24:50.979Z,10.30
2019-02-28T22:27:38.567Z,10.30
2019-02-28T22:31:00.838Z,10.30
2019-02-28T22:34:25.753Z,10.30
2019-02-28T22:37:13.464Z,10.40
2019-02-28T22:40:01.692Z,10.30
2019-02-28T22:42:49.738Z,10.30
2019-02-28T22:45:37.974Z,10.30
2019-02-28T22:48:25.485Z,10.30
2019-02-28T22:51:13.600Z,10.40
2019-02-28T22:54:01.393Z,10.40
2019-02-28T22:56:51.039Z,10.40
2019-02-28T22:59:38.958Z,10.40
2019-02-28T23:02:28.733Z,10.30
2019-02-28T23:05:17.181Z,10.20
2019-02-28T23:08:04.868Z,10.20
2019-02-28T23:10:53.163Z,10.20
2019-02-28T23:13:41.059Z,10.00
2019-02-28T23:16:28.926Z,9.90
2019-02-28T23:19:16.788Z,9.90
2019-02-28T23:22:07.795Z,9.80
2019-02-28T23:24:55.869Z,9.70
2019-02-28T23:27:43.662Z,9.70
2019-02-28T23:30:42.857Z,9.60
2019-02-28T23:33:31.008Z,9.50
2019-02-28T23:36:18.767Z,9.50
2019-02-28T23:39:07.939Z,9.40
2019-02-28T23:41:56.007Z,9.30
2019-02-28T23:44:47.072Z,9.20
2019-02-28T23:47:35.219Z,9.10
2019-02-28T23:50:23.386Z,9.10
2019-02-28T23:53:11.517Z,9.00
2019-02-28T23:55:59.182Z,9.00
2019-02-28T23:58:47.163Z,9.00
